Flight Track Log - Related Links

Times and Time Zones

All times are in EDT time to prevent confusion due to time zone crossing. See the AAL832 flight status page for this flight to view local times or setup timezone preferences in your user account.

Time Position Orientation Groundspeed Altitude Reporting Facility
EDT Latitude Longitude Course Direction KTS MPH feet Rate Location/Type
Thu 12:25:49 PM 33.9340 -118.4700 262° West 195 224 2,100  Level FlightAware ADS-B
Thu 12:26:19 PM 33.9310 -118.5060 264° West 237 273 3,000 2,509 Climbing FlightAware ADS-B
Thu 12:26:44 PM 33.9280 -118.5410 264° West 251 289 4,400 3,150 Climbing FlightAware ADS-B
Thu 12:26:59 PM 33.9230 -118.5610 253° West 259 298 5,100 3,000 Climbing FlightAware ADS-B
Thu 12:27:14 PM 33.9080 -118.5780 223° Southwest 267 307 5,900 2,600 Climbing FlightAware ADS-B
Thu 12:27:29 PM 33.8910 -118.5830 194° South 281 323 6,400 2,160 Climbing FlightAware ADS-B
Thu 12:27:39 PM 33.8830 -118.5820 174° South 279 321 6,800 3,120 Climbing FlightAware ADS-B
Thu 12:27:54 PM 33.8630 -118.5660 146° Southeast 279 321 7,700 3,200 Climbing FlightAware ADS-B
Thu 12:28:09 PM 33.8560 -118.5460 113° Southeast 276 318 8,400 3,000 Climbing FlightAware ADS-B
Thu 12:28:14 PM 33.8560 -118.5390 90° East 275 316 8,700 3,840 Climbing FlightAware ADS-B
Thu 12:28:34 PM 33.8620 -118.5070 77° East 269 310 10,000 2,492 Climbing FlightAware ADS-B
Thu 12:29:19 PM 33.9000 -118.4530 50° Northeast 315 362 11,400 2,047 Climbing FlightAware ADS-B
Thu 12:29:59 PM 33.9390 -118.3960 50° Northeast 343 395 12,900 2,118 Climbing FlightAware ADS-B
Thu 12:30:44 PM 33.9830 -118.3210 55° Northeast 375 432 14,400 2,118 Climbing FlightAware ADS-B
Thu 12:31:24 PM 34.0240 -118.2490 55° Northeast 395 455 15,900 2,188 Climbing FlightAware ADS-B
Thu 12:32:09 PM 34.0690 -118.1690 56° Northeast 410 472 17,500 2,329 Climbing FlightAware ADS-B
Thu 12:32:49 PM 34.1130 -118.0920 55° Northeast 417 480 19,200 2,325 Climbing FlightAware ADS-B
Thu 12:33:29 PM 34.1600 -118.0180 52° Northeast 425 489 20,600 1,906 Climbing FlightAware ADS-B
Thu 12:34:14 PM 34.2190 -117.9310 51° Northeast 444 511 21,900 1,835 Climbing FlightAware ADS-B
Thu 12:34:54 PM 34.2740 -117.8540 49° Northeast 453 521 23,200 1,800 Climbing FlightAware ADS-B
Thu 12:35:34 PM 34.3280 -117.7760 50° Northeast 463 533 24,300 1,482 Climbing FlightAware ADS-B
Thu 12:36:19 PM 34.3880 -117.6890 50° Northeast 477 549 25,300 1,412 Climbing FlightAware ADS-B
Thu 12:36:59 PM 34.4470 -117.6040 50° Northeast 487 560 26,300 1,482 Climbing FlightAware ADS-B
Thu 12:37:44 PM 34.5140 -117.5060 50° Northeast 497 572 27,400 1,412 Climbing FlightAware ADS-B
Thu 12:38:24 PM 34.5670 -117.4280 50° Northeast 500 575 28,300 1,694 Climbing FlightAware ADS-B
Thu 12:39:09 PM 34.6310 -117.3350 50° Northeast 495 570 29,800 1,906 Climbing FlightAware ADS-B
Thu 12:39:49 PM 34.6950 -117.2410 50° Northeast 495 570 31,000 1,725 Climbing FlightAware ADS-B
Thu 12:40:29 PM 34.7520 -117.1570 50° Northeast 494 568 32,100 1,694 Climbing FlightAware ADS-B
Thu 12:41:14 PM 34.8190 -117.0580 50° Northeast 492 566 33,400 1,680 Climbing FlightAware ADS-B
Thu 12:41:44 PM 34.8580 -117.0020 50° Northeast 489 563 34,200 1,725 Climbing FlightAware ADS-B
Thu 12:42:34 PM 34.9330 -116.8910 50° Northeast 482 555 35,700 1,389 Climbing FlightAware ADS-B
Thu 12:43:19 PM 34.9960 -116.7980 50° Northeast 486 559 36,400 918 Climbing FlightAware ADS-B
Thu 12:43:59 PM 35.0520 -116.7140 51° Northeast 489 563 37,000 632 Climbing FlightAware ADS-B
Thu 12:44:54 PM 35.1270 -116.6030 50° Northeast 489 563 37,400 253 Climbing FlightAware ADS-B
Thu 12:45:34 PM 35.1770 -116.5310 50° Northeast 489 563 37,400  Level FlightAware ADS-B
Thu 12:46:14 PM 35.2260 -116.4590 50° Northeast 489 563 37,400 960 Level FlightAware ADS-B
Thu 12:47:14 PM 35.3310 -116.3000 51° Northeast 489 563 39,000 914 Climbing FlightAware ADS-B
Thu 12:47:59 PM 35.3960 -116.1990 52° Northeast 486 559 39,000  Level FlightAware ADS-B
Thu 12:48:34 PM 35.4420 -116.1290 51° Northeast 486 559 39,000  Level FlightAware ADS-B
Thu 12:49:14 PM 35.4910 -116.0560 50° Northeast 486 559 39,000  Level FlightAware ADS-B
Thu 12:50:04 PM 35.5510 -115.9650 51° Northeast 486 559 39,000  Level FlightAware ADS-B
Thu 12:50:44 PM 35.6190 -115.8330 58° Northeast 485 558 39,000  Level FlightAware ADS-B
Thu 12:51:24 PM 35.6490 -115.7310 70° East 485 558 39,000  Level FlightAware ADS-B
Thu 12:52:09 PM 35.6730 -115.6100 76° East 486 559 39,000  Level FlightAware ADS-B
Thu 12:52:49 PM 35.6850 -115.5010 82° East 487 560 39,000  Level FlightAware ADS-B
Thu 12:53:34 PM 35.6990 -115.3790 82° East 488 562 39,000  Level FlightAware ADS-B
Thu 12:54:14 PM 35.7100 -115.2680 83° East 488 562 39,000  Level FlightAware ADS-B
Thu 12:54:59 PM 35.7240 -115.1390 82° East 490 564 39,000  Level FlightAware ADS-B
Thu 12:55:39 PM 35.7350 -115.0290 83° East 492 566 39,000  Level FlightAware ADS-B
Thu 12:56:19 PM 35.7460 -114.9190 83° East 494 568 39,000  Level FlightAware ADS-B
Thu 12:57:04 PM 35.7580 -114.7950 83° East 497 572 39,000  Level FlightAware ADS-B
Thu 12:57:44 PM 35.7700 -114.6810 83° East 499 574 39,000  Level FlightAware ADS-B
Thu 12:58:29 PM 35.7820 -114.5530 83° East 501 577 39,000  Level FlightAware ADS-B
Thu 12:59:09 PM 35.7930 -114.4390 83° East 502 578 39,000  Level FlightAware ADS-B
Thu 12:59:49 PM 35.8040 -114.3250 83° East 503 579 39,000  Level FlightAware ADS-B
Thu 01:00:34 PM 35.8150 -114.2060 83° East 504 580 39,000  Level FlightAware ADS-B
Thu 01:01:14 PM 35.8260 -114.0870 83° East 506 582 39,000  Level FlightAware ADS-B
Thu 01:01:59 PM 35.8380 -113.9550 84° East 506 582 39,000  Level FlightAware ADS-B
Thu 01:02:39 PM 35.8490 -113.8440 83° East 507 583 39,000  Level FlightAware ADS-B
Thu 01:03:19 PM 35.8590 -113.7280 84° East 508 585 39,000  Level FlightAware ADS-B
Thu 01:04:04 PM 35.8710 -113.5990 83° East 507 583 39,000  Level FlightAware ADS-B
Thu 01:04:44 PM 35.8810 -113.4830 84° East 508 585 39,000  Level FlightAware ADS-B
Thu 01:05:29 PM 35.8920 -113.3520 84° East 508 585 39,000  Level FlightAware ADS-B
Thu 01:06:09 PM 35.9020 -113.2390 84° East 508 585 39,000  Level FlightAware ADS-B
Thu 01:06:49 PM 35.9120 -113.1220 84° East 509 586 39,000  Level FlightAware ADS-B
Thu 01:07:34 PM 35.9220 -112.9950 84° East 509 586 39,000  Level FlightAware ADS-B
Thu 01:08:14 PM 35.9320 -112.8790 84° East 510 587 39,000  Level FlightAware ADS-B
Thu 01:08:59 PM 35.9430 -112.7440 84° East 511 588 39,000  Level FlightAware ADS-B
Thu 01:09:39 PM 35.9520 -112.6300 84° East 512 589 39,000  Level FlightAware ADS-B
Thu 01:10:19 PM 35.9610 -112.5140 84° East 512 589 39,000  Level FlightAware ADS-B
Thu 01:11:04 PM 35.9710 -112.3880 84° East 514 592 39,000  Level FlightAware ADS-B
Thu 01:11:59 PM 35.9810 -112.2650 84° East 514 592 39,000  Level FlightAware ADS-B
Thu 01:12:54 PM 35.9920 -112.1130 85° East 515 593 39,000  Level FlightAware ADS-B
Thu 01:13:29 PM 36.0020 -112.0130 83° East 514 592 39,000  Level FlightAware ADS-B
Thu 01:14:14 PM 36.0190 -111.8950 80° East 514 592 39,000  Level FlightAware ADS-B
Thu 01:14:54 PM 36.0680 -111.7390 69° East 514 592 39,000  Level FlightAware ADS-B
Thu 01:15:39 PM 36.0980 -111.6270 72° East 514 592 39,000  Level FlightAware ADS-B
Thu 01:16:19 PM 36.1230 -111.5320 72° East 514 592 39,000  Level FlightAware ADS-B
Thu 01:17:09 PM 36.1540 -111.4120 72° East 514 592 39,000  Level FlightAware ADS-B
Thu 01:17:49 PM 36.1790 -111.3170 72° East 514 592 39,000  Level FlightAware ADS-B
Thu 01:18:29 PM 36.2040 -111.2220 72° East 514 592 39,000  Level FlightAware ADS-B
Thu 01:19:09 PM 36.2290 -111.1270 72° East 514 592 39,000  Level FlightAware ADS-B
Thu 01:19:59 PM 36.2600 -111.0070 72° East 514 592 39,000  Level FlightAware ADS-B
Thu 01:20:39 PM 36.2850 -110.9120 72° East 514 592 39,000  Level FlightAware ADS-B
Thu 01:21:19 PM 36.3100 -110.8170 72° East 514 592 39,000  Level FlightAware ADS-B
Thu 01:21:59 PM 36.3350 -110.7210 72° East 514 592 39,000  Level FlightAware ADS-B
Thu 01:22:39 PM 36.3600 -110.6260 72° East 514 592 39,000  Level FlightAware ADS-B
Thu 01:23:19 PM 36.3850 -110.5300 72° East 514 592 39,000  Level FlightAware ADS-B
Thu 01:24:09 PM 36.4160 -110.4110 72° East 514 592 39,000  Level FlightAware ADS-B
Thu 01:24:49 PM 36.4410 -110.3150 72° East 514 592 39,000  Level FlightAware ADS-B
Thu 01:25:49 PM 36.5261 -109.8942 72° East 516 594 39,000  Level Denver Center
Thu 01:26:51 PM 36.5761 -109.7047 72° East 516 594 39,000  Level Denver Center
Thu 01:27:53 PM 36.6181 -109.5419 72° East 514 592 39,000  Level Denver Center
Thu 01:28:55 PM 36.6669 -109.3506 72° East 515 593 39,000  Level Denver Center
Thu 01:29:57 PM 36.7086 -109.1853 72° East 519 597 39,000  Level Denver Center
Thu 01:30:59 PM 36.7492 -109.0203 73° East 518 596 39,000  Level Denver Center
Thu 01:32:01 PM 36.7981 -108.8267 72° East 520 598 39,000  Level Denver Center
Thu 01:33:03 PM 36.8392 -108.6608 73° East 521 600 39,000  Level Denver Center
Thu 01:34:05 PM 36.8872 -108.4656 73° East 524 603 39,000  Level Denver Center
Thu 01:35:07 PM 36.9281 -108.2972 73° East 526 605 39,000  Level Denver Center
Thu 01:36:09 PM 36.9753 -108.0989 73° East 531 611 39,000  Level Denver Center
Thu 01:37:11 PM 37.0172 -107.9300 73° East 530 610 39,000  Level Denver Center
Thu 01:38:13 PM 37.0692 -107.7336 72° East 532 612 39,000  Level Denver Center
Thu 01:39:15 PM 37.1131 -107.5631 72° East 534 615 39,000  Level Denver Center
Thu 01:40:17 PM 37.1636 -107.3642 72° East 538 619 39,000  Level Denver Center
Thu 01:41:20 PM 37.2064 -107.1928 73° East 538 619 39,000  Level Denver Center
Thu 01:47:17 PM 37.4524 -106.1020 73° East 538 619 39,000  Level FlightAware ADS-B
Thu 01:47:57 PM 37.4807 -105.9830 73° East 539 620 39,000  Level FlightAware ADS-B
Thu 01:48:32 PM 37.5073 -105.8770 72° East 540 621 39,000  Level FlightAware ADS-B
Thu 01:49:03 PM 37.5315 -105.7840 72° East 541 623 39,000  Level FlightAware ADS-B
Thu 01:49:35 PM 37.5558 -105.6900 72° East 542 624 39,000  Level FlightAware ADS-B
Thu 01:50:05 PM 37.5787 -105.6000 72° East 542 624 39,000  Level FlightAware ADS-B
Thu 01:50:41 PM 37.6062 -105.4910 72° East 542 624 39,000  Level FlightAware ADS-B
Thu 01:51:11 PM 37.6290 -105.4010 72° East 541 623 39,000  Level FlightAware ADS-B
Thu 01:51:43 PM 37.6531 -105.3050 72° East 542 624 39,000  Level FlightAware ADS-B
Thu 01:52:13 PM 37.6757 -105.2140 73° East 542 624 39,000  Level FlightAware ADS-B
Thu 01:52:45 PM 37.6993 -105.1190 73° East 540 621 39,000  Level FlightAware ADS-B
Thu 01:53:16 PM 37.7227 -105.0250 73° East 533 613 39,000  Level FlightAware ADS-B
Thu 01:53:50 PM 37.7473 -104.9250 73° East 533 613 39,000  Level FlightAware ADS-B
Thu 01:54:20 PM 37.7696 -104.8340 73° East 545 627 39,000  Level FlightAware ADS-B
Thu 01:54:51 PM 37.7932 -104.7400 72° East 544 626 39,000  Level FlightAware ADS-B
Thu 01:55:24 PM 37.8168 -104.6430 73° East 532 612 39,000  Level FlightAware ADS-B
Thu 01:55:54 PM 37.8385 -104.5540 73° East 525 604 39,000  Level FlightAware ADS-B
Thu 01:56:27 PM 37.8623 -104.4560 73° East 527 606 39,000  Level FlightAware ADS-B
Thu 01:57:24 PM 37.9033 -104.2880 73° East 531 611 39,000  Level FlightAware ADS-B
Thu 01:57:54 PM 37.9255 -104.1960 73° East 542 624 39,000  Level FlightAware ADS-B
Thu 01:58:25 PM 37.9478 -104.1030 73° East 539 620 39,000  Level FlightAware ADS-B
Thu 01:58:55 PM 37.9701 -104.0100 73° East 542 624 39,000  Level FlightAware ADS-B
Thu 01:59:26 PM 37.9931 -103.9180 72° East 543 625 39,000  Level FlightAware ADS-B
Thu 01:59:58 PM 38.0187 -103.8200 72° East 539 620 39,000  Level FlightAware ADS-B
Thu 02:00:28 PM 38.0424 -103.7310 71° East 538 619 39,000  Level FlightAware ADS-B
Thu 02:00:59 PM 38.0657 -103.6400 72° East 537 618 39,000  Level FlightAware ADS-B
Thu 02:01:30 PM 38.0898 -103.5480 72° East 538 619 39,000  Level FlightAware ADS-B
Thu 02:02:00 PM 38.1133 -103.4560 72° East 539 620 39,000  Level FlightAware ADS-B
Thu 02:02:30 PM 38.1365 -103.3650 72° East 541 623 39,000  Level FlightAware ADS-B
Thu 02:03:01 PM 38.1600 -103.2720 72° East 542 624 39,000  Level FlightAware ADS-B
Thu 02:03:31 PM 38.1832 -103.1800 72° East 543 625 39,000  Level FlightAware ADS-B
Thu 02:04:02 PM 38.2061 -103.0890 72° East 544 626 39,000  Level FlightAware ADS-B
Thu 02:04:33 PM 38.2299 -102.9950 72° East 545 627 39,000  Level FlightAware ADS-B
Thu 02:05:03 PM 38.2532 -102.9020 72° East 546 628 39,000  Level FlightAware ADS-B
Thu 02:05:33 PM 38.2764 -102.8100 72° East 547 629 39,000  Level FlightAware ADS-B
Thu 02:06:05 PM 38.3004 -102.7140 72° East 548 631 39,000  Level FlightAware ADS-B
Thu 02:06:35 PM 38.3234 -102.6210 72° East 548 631 39,000  Level FlightAware ADS-B
Thu 02:07:06 PM 38.3473 -102.5250 72° East 550 633 39,000  Level FlightAware ADS-B
Thu 02:07:36 PM 38.3704 -102.4310 73° East 550 633 39,000  Level FlightAware ADS-B
Thu 02:08:07 PM 38.3934 -102.3380 72° East 550 633 39,000  Level FlightAware ADS-B
Thu 02:08:37 PM 38.4168 -102.2430 73° East 551 634 39,000  Level FlightAware ADS-B
Thu 02:09:20 PM 38.4489 -102.1120 73° East 551 634 39,000  Level FlightAware ADS-B
Thu 02:09:50 PM 38.4719 -102.0170 73° East 552 635 39,000  Level FlightAware ADS-B
Thu 02:10:22 PM 38.4971 -101.9190 72° East 551 634 39,000  Level FlightAware ADS-B
Thu 02:10:53 PM 38.5230 -101.8260 70° East 551 634 39,000  Level FlightAware ADS-B
Thu 02:11:23 PM 38.5488 -101.7330 70° East 551 634 39,000  Level FlightAware ADS-B
Thu 02:11:56 PM 38.5766 -101.6320 71° East 552 635 39,000  Level FlightAware ADS-B
Thu 02:12:21 PM 38.6150 -101.5722 71° East 549 632 39,000  Level Denver Center
Thu 02:13:23 PM 38.6617 -101.3928 72° East 554 638 39,000  Level Denver Center
Thu 02:14:25 PM 38.7172 -101.1842 71° East 554 638 39,000  Level Denver Center
Thu 02:15:27 PM 38.7642 -101.0061 71° East 551 634 39,000  Level Denver Center
Thu 02:16:29 PM 38.8186 -100.7961 72° East 555 639 39,000  Level Denver Center
Thu 02:17:31 PM 38.8647 -100.6164 72° East 554 638 39,000  Level Denver Center
Thu 02:18:33 PM 38.9186 -100.4056 72° East 555 639 39,000  Level Denver Center
Thu 02:19:35 PM 38.9639 -100.2244 72° East 555 639 39,000  Level Denver Center
Thu 02:20:38 PM 39.0122 -100.0361 72° East 553 636 39,000  Level Denver Center
Thu 02:21:40 PM 39.0625 -99.8336 72° East 555 639 39,000  Level Denver Center
Thu 02:22:42 PM 39.1139 -99.6222 73° East 555 639 39,000  Level Denver Center
Thu 02:23:44 PM 39.1583 -99.4406 72° East 555 639 39,000  Level Denver Center
Thu 02:24:46 PM 39.2039 -99.2531 73° East 554 638 39,000  Level Denver Center
Thu 02:25:48 PM 39.2556 -99.0408 72° East 557 641 39,000  Level Denver Center
Thu 02:26:50 PM 39.2978 -98.8672 73° East 552 635 39,000  Level Denver Center
Thu 02:27:52 PM 39.3467 -98.6589 73° East 544 626 39,000  Level Denver Center
Thu 02:28:54 PM 39.3900 -98.4747 73° East 545 627 39,000  Level Denver Center
Thu 02:29:56 PM 39.4375 -98.2683 73° East 538 619 39,000  Level Denver Center
Thu 02:31:34 PM 39.5014 -97.9850 74° East 538 619 39,000  Level Kansas City Center
Thu 02:37:19 PM 39.6290 -96.9790 74° East 533 613 39,000  Level FlightAware ADS-B
Thu 02:38:04 PM 39.6490 -96.8340 80° East 534 615 39,000  Level FlightAware ADS-B
Thu 02:38:49 PM 39.6670 -96.6910 81° East 535 616 39,000  Level FlightAware ADS-B
Thu 02:39:39 PM 39.6870 -96.5410 80° East 535 616 39,000  Level FlightAware ADS-B
Thu 02:40:24 PM 39.7060 -96.3940 80° East 538 619 39,000  Level FlightAware ADS-B
Thu 02:41:04 PM 39.7230 -96.2570 81° East 538 619 39,000  Level FlightAware ADS-B
Thu 02:42:04 PM 39.7470 -96.0660 81° East 537 618 39,000  Level FlightAware ADS-B
Thu 02:42:44 PM 39.7590 -95.9630 81° East 537 618 39,000  Level FlightAware ADS-B
Thu 02:43:24 PM 39.7730 -95.8540 80° East 534 615 39,000  Level FlightAware ADS-B
Thu 02:44:09 PM 39.7940 -95.6790 81° East 531 611 39,000  Level FlightAware ADS-B
Thu 02:44:49 PM 39.8050 -95.5900 81° East 532 612 39,000  Level FlightAware ADS-B
Thu 02:45:34 PM 39.8260 -95.4080 81° East 543 625 39,000  Level FlightAware ADS-B
Thu 02:46:14 PM 39.8410 -95.2810 81° East 548 631 39,000  Level FlightAware ADS-B
Thu 02:46:54 PM 39.8530 -95.1750 82° East 551 634 39,000  Level FlightAware ADS-B
Thu 02:47:34 PM 39.8820 -94.9210 81° East 552 635 39,000  Level FlightAware ADS-B
Thu 02:48:19 PM 39.8990 -94.7720 81° East 554 638 39,000  Level FlightAware ADS-B
Thu 02:49:04 PM 39.9150 -94.6260 82° East 553 636 39,000  Level FlightAware ADS-B
Thu 02:49:49 PM 39.9310 -94.4740 82° East 553 636 39,000  Level FlightAware ADS-B
Thu 02:50:29 PM 39.9460 -94.3420 82° East 554 638 39,000  Level FlightAware ADS-B
Thu 02:51:09 PM 39.9600 -94.2100 82° East 554 638 39,000  Level FlightAware ADS-B
Thu 02:51:54 PM 39.9750 -94.0640 82° East 554 638 39,000  Level FlightAware ADS-B
Thu 02:52:34 PM 39.9880 -93.9330 83° East 554 638 39,000  Level FlightAware ADS-B
Thu 02:53:14 PM 40.0010 -93.8000 83° East 554 638 39,000  Level FlightAware ADS-B
Thu 02:53:59 PM 40.0160 -93.6460 83° East 553 636 39,000  Level FlightAware ADS-B
Thu 02:54:39 PM 40.0280 -93.5150 83° East 554 638 39,000  Level FlightAware ADS-B
Thu 02:55:24 PM 40.0410 -93.3730 83° East 552 635 39,000  Level FlightAware ADS-B
Thu 02:56:04 PM 40.0540 -93.2400 83° East 551 634 39,000  Level FlightAware ADS-B
Thu 02:56:59 PM 40.0700 -93.0610 83° East 550 633 39,000  Level FlightAware ADS-B
Thu 02:57:34 PM 40.0800 -92.9500 83° East 549 632 39,000  Level FlightAware ADS-B
Thu 02:58:24 PM 40.0950 -92.7800 83° East 549 632 39,000  Level FlightAware ADS-B
Thu 02:59:04 PM 40.1070 -92.6540 83° East 548 631 39,000  Level FlightAware ADS-B
Thu 03:00:04 PM 40.1580 -92.4620 71° East 528 608 39,000  Level FlightAware ADS-B
Thu 03:00:54 PM 40.2080 -92.3220 65° Northeast 527 606 39,000  Level FlightAware ADS-B
Thu 03:01:39 PM 40.2500 -92.2040 65° Northeast 527 606 39,000  Level FlightAware ADS-B
Thu 03:02:19 PM 40.2850 -92.1060 65° Northeast 527 606 39,000 -1,835 Level FlightAware ADS-B
Thu 03:03:04 PM 40.3410 -91.9480 65° Northeast 526 605 36,400 -2,550 Descending FlightAware ADS-B
Thu 03:03:39 PM 40.3750 -91.8500 65° Northeast 525 604 35,600 -1,200 Descending FlightAware ADS-B
Thu 03:04:19 PM 40.4170 -91.7300 65° Northeast 519 597 34,900 -1,333 Descending FlightAware ADS-B
Thu 03:05:09 PM 40.4640 -91.5890 66° East 524 603 33,600 -1,267 Descending FlightAware ADS-B
Thu 03:05:49 PM 40.5020 -91.4760 66° East 521 600 33,000 -424 Descending FlightAware ADS-B
Thu 03:06:34 PM 40.5480 -91.3370 66° East 520 598 33,000  Level FlightAware ADS-B
Thu 03:07:09 PM 40.5810 -91.2400 66° East 522 601 33,000  Level FlightAware ADS-B
Thu 03:07:59 PM 40.6320 -91.0900 66° East 525 604 33,000  Level FlightAware ADS-B
Thu 03:08:39 PM 40.6710 -90.9770 66° East 526 605 33,000 -600 Level FlightAware ADS-B
Thu 03:09:19 PM 40.7110 -90.8570 66° East 511 588 32,200 -1,129 Descending FlightAware ADS-B
Thu 03:10:04 PM 40.7520 -90.7340 66° East 483 556 31,400 -1,275 Descending FlightAware ADS-B
Thu 03:10:39 PM 40.7820 -90.6450 66° East 474 545 30,500 -1,624 Descending FlightAware ADS-B
Thu 03:11:29 PM 40.8270 -90.5110 66° East 460 529 29,100 -1,765 Descending FlightAware ADS-B
Thu 03:12:04 PM 40.8570 -90.4190 67° East 452 520 28,000 -1,553 Descending FlightAware ADS-B
Thu 03:12:54 PM 40.8970 -90.2990 66° East 436 502 26,900 -1,467 Descending FlightAware ADS-B
Thu 03:13:34 PM 40.9300 -90.1980 67° East 425 489 25,800 -1,200 Descending FlightAware ADS-B
Thu 03:14:29 PM 40.9720 -90.0720 66° East 410 472 25,000 -800 Descending FlightAware ADS-B
Thu 03:15:04 PM 41.0000 -89.9870 66° East 433 498 24,600 -750 Descending FlightAware ADS-B
Thu 03:15:49 PM 41.0350 -89.8780 67° East 445 512 24,000 -400 Descending FlightAware ADS-B
Thu 03:16:34 PM 41.0730 -89.7630 66° East 438 504 24,000 -200 Level FlightAware ADS-B
Thu 03:17:19 PM 41.1070 -89.6560 67° East 431 496 23,700 -1,271 Descending FlightAware ADS-B
Thu 03:17:59 PM 41.1410 -89.5610 65° Northeast 418 481 22,200 -2,325 Descending FlightAware ADS-B
Thu 03:18:39 PM 41.1770 -89.4720 62° Northeast 408 470 20,600 -2,259 Descending FlightAware ADS-B
Thu 03:19:24 PM 41.2180 -89.3720 61° Northeast 399 459 19,000 -2,118 Descending FlightAware ADS-B
Thu 03:20:04 PM 41.2530 -89.2850 62° Northeast 396 456 17,600 -2,047 Descending FlightAware ADS-B
Thu 03:20:49 PM 41.2910 -89.1910 62° Northeast 390 449 16,100 -1,835 Descending FlightAware ADS-B
Thu 03:21:29 PM 41.3240 -89.1100 61° Northeast 378 435 15,000 -1,875 Descending FlightAware ADS-B
Thu 03:22:09 PM 41.3570 -89.0270 62° Northeast 375 432 13,600 -1,906 Descending FlightAware ADS-B
Thu 03:22:54 PM 41.3940 -88.9350 62° Northeast 367 422 12,300 -1,694 Descending FlightAware ADS-B
Thu 03:23:34 PM 41.4270 -88.8540 61° Northeast 363 418 11,200 -1,129 Descending FlightAware ADS-B
Thu 03:24:19 PM 41.4610 -88.7680 62° Northeast 362 417 10,700 -353 Descending FlightAware ADS-B
Thu 03:24:59 PM 41.4930 -88.6890 62° Northeast 363 418 10,700  Level FlightAware ADS-B
Thu 03:25:44 PM 41.5280 -88.6000 62° Northeast 361 415 10,700  Level FlightAware ADS-B
Thu 03:26:24 PM 41.5600 -88.5200 62° Northeast 363 418 10,700 -353 Level FlightAware ADS-B
Thu 03:27:09 PM 41.6000 -88.4430 55° Northeast 355 409 10,200 -686 Descending FlightAware ADS-B
Thu 03:27:34 PM 41.6280 -88.3960 51° Northeast 349 402 9,900 -545 Descending FlightAware ADS-B
Thu 03:28:04 PM 41.6570 -88.3460 52° Northeast 340 391 9,700 -218 Descending FlightAware ADS-B
Thu 03:28:29 PM 41.6800 -88.3060 52° Northeast 312 359 9,700 -327 Level FlightAware ADS-B
Thu 03:28:59 PM 41.7070 -88.2610 51° Northeast 288 331 9,400 -900 Descending FlightAware ADS-B
Thu 03:29:29 PM 41.7310 -88.2230 50° Northeast 283 326 8,800 -1,200 Descending FlightAware ADS-B
Thu 03:29:54 PM 41.7520 -88.1870 52° Northeast 276 318 8,300 -1,309 Descending FlightAware ADS-B
Thu 03:30:24 PM 41.7750 -88.1480 52° Northeast 275 316 7,600 -1,200 Descending FlightAware ADS-B
Thu 03:30:49 PM 41.7930 -88.1170 52° Northeast 274 315 7,200 -1,050 Descending FlightAware ADS-B
Thu 03:31:04 PM 41.8050 -88.0950 54° Northeast 273 314 6,900 -667 Descending FlightAware ADS-B
Thu 03:31:34 PM 41.8280 -88.0550 52° Northeast 277 319 6,700 -267 Descending FlightAware ADS-B
Thu 03:31:49 PM 41.8390 -88.0350 54° Northeast 277 319 6,700  Level FlightAware ADS-B
Thu 03:32:14 PM 41.8540 -87.9950 63° Northeast 268 308 6,700  Level FlightAware ADS-B
Thu 03:32:29 PM 41.8550 -87.9740 86° East 261 300 6,700  Level FlightAware ADS-B
Thu 03:32:54 PM 41.8560 -87.9320 88° East 246 283 6,700  Level FlightAware ADS-B
Thu 03:33:09 PM 41.8560 -87.9110 90° East 238 274 6,700  Level FlightAware ADS-B
Thu 03:33:39 PM 41.8560 -87.8700 90° East 237 273 6,700  Level FlightAware ADS-B
Thu 03:33:54 PM 41.8560 -87.8430 90° East 236 272 6,700 -436 Level FlightAware ADS-B
Thu 03:34:34 PM 41.8570 -87.7890 89° East 230 265 6,300 -771 Descending FlightAware ADS-B
Thu 03:35:04 PM 41.8570 -87.7460 90° East 230 265 5,800 -1,091 Descending FlightAware ADS-B
Thu 03:35:29 PM 41.8570 -87.7070 90° East 230 265 5,300 -1,200 Descending FlightAware ADS-B
Thu 03:35:44 PM 41.8630 -87.6870 68° East 225 259 5,000 -1,200 Descending FlightAware ADS-B
Thu 03:35:59 PM 41.8750 -87.6750 37° Northeast 218 251 4,700 -1,200 Descending FlightAware ADS-B
Thu 03:36:14 PM 41.8880 -87.6720 10° North 216 249 4,400 -1,350 Descending FlightAware ADS-B
Thu 03:36:39 PM 41.9110 -87.6810 344° North 208 239 3,800 -1,200 Descending FlightAware ADS-B
Thu 03:36:54 PM 41.9200 -87.6970 307° West 195 224 3,600 -667 Descending FlightAware ADS-B
Thu 03:37:24 PM 41.9330 -87.7280 299° West 175 201 3,300 -873 Descending FlightAware ADS-B
Thu 03:37:49 PM 41.9410 -87.7520 294° West 175 201 2,800 -1,200 Descending FlightAware ADS-B
Thu 03:38:19 PM 41.9440 -87.7840 277° West 167 192 2,200 -1,091 Descending FlightAware ADS-B
Thu 03:38:44 PM 41.9450 -87.8060 274° West 167 192 1,800 -982 Descending FlightAware ADS-B
Thu 03:39:14 PM 41.9450 -87.8380 270° West 130 150 1,300 -800 Descending FlightAware ADS-B
Thu 03:39:44 PM 41.9450 -87.8590 270° West 122 140 1,000 -655 Descending FlightAware ADS-B
Thu 03:40:09 PM 41.9460 -87.8790 274° West 120 138 700 -655 Descending FlightAware ADS-B
Thu 03:40:39 PM 41.9460 -87.9010 270° West 121 139 400 -600 Descending FlightAware ADS-B

Login

Don't have an account? Register now (free) for customized features, flight alerts, and more!